Gao Qiang — VRVQ8 — position and weather

sailwx.info

Track history (hours):
 
Tides and Currents Weather Stations Pressure Air Temp Water Temp Dewpoint Dewpoint Depression Visibility Wind Speed Wind Dir Waves Ship Positions

Gao Qiang

Last reported at 2014-Aug-16 01:09 UTC. Time now 2014-Aug-21 00:26 UTC.
Position N 33°53' E 025°33'.

Length 186 m; draft 9.3 m.

Type: Cargo ship. MMSI: 477611000.

Date/timePositionNaut miles runAvg speedWind from/ knotsBaromVisibWave heightAir tempDewpointWater temp
2014-Aug-16 01:09N 33°53' E 025°33'1112.3
2014-Aug-16 00:15N 33°49' E 025°45'10512.0
2014-Aug-15 15:33N 33°12' E 027°43'1312.3
2014-Aug-15 14:30N 33°07' E 027°57'1612.6
2014-Aug-15 13:15N 33°01' E 028°14'912.8
2014-Aug-15 12:33N 32°59' E 028°25'1512.9
2014-Aug-15 11:23N 32°54' E 028°42'1112.8
2014-Aug-15 10:34N 32°50' E 028°53'1312.6
2014-Aug-15 09:33N 32°45' E 029°08'1312.6
2014-Aug-15 08:33N 32°40' E 029°21'1312.7
2014-Aug-15 07:33N 32°35' E 029°35'1312.7
2014-Aug-15 06:33N 32°31' E 029°49'1212.4
2014-Aug-15 05:33N 32°27' E 030°03'1212.4
2014-Aug-15 04:34N 32°22' E 030°17'1612.3
2014-Aug-15 03:14N 32°17' E 030°35'812.4
2014-Aug-15 02:33N 32°14' E 030°44'1212.1
2014-Aug-15 01:33N 32°09' E 030°57'1212.4
2014-Aug-15 00:33N 32°05' E 031°11'1312.5
2014-Aug-14 23:33N 32°00' E 031°25'1212.4
2014-Aug-14 22:33N 31°55' E 031°38'1211.9
2014-Aug-14 21:34N 31°52' E 031°52'1212.1
2014-Aug-14 20:34N 31°43' E 032°02'1212.2
2014-Aug-14 19:33N 31°34' E 032°12'1212.1
2014-Aug-14 18:33N 31°28' E 032°24'1111.6
2014-Aug-14 17:33N 31°17' E 032°22'9 9.3
2014-Aug-14 16:33N 31°08' E 032°19'10 9.5
2014-Aug-14 15:33N 30°58' E 032°19'9 8.9
2014-Aug-14 14:32N 30°49' E 032°19'56 3.1
2014-Aug-13 20:31N 29°54' E 032°31'  
Track history (hours):
 
Tides and Currents Weather Stations Pressure Air Temp Water Temp Dewpoint Dewpoint Depression Visibility Wind Speed Wind Dir Waves Ship Positions

Gao Qiang

Last reported at 2014-Aug-16 01:09 UTC. Time now 2014-Aug-21 00:26 UTC.
Position N 33°53' E 025°33'.

Length 186 m; draft 9.3 m.

Type: Cargo ship. MMSI: 477611000.

Date/timePositionNaut miles runAvg speedWind from/ knotsBaromVisibWave heightAir tempDewpointWater temp
2014-Aug-16 01:09N 33°53' E 025°33'1112.3
2014-Aug-16 00:15N 33°49' E 025°45'10512.0
2014-Aug-15 15:33N 33°12' E 027°43'1312.3
2014-Aug-15 14:30N 33°07' E 027°57'1612.6
2014-Aug-15 13:15N 33°01' E 028°14'912.8
2014-Aug-15 12:33N 32°59' E 028°25'1512.9
2014-Aug-15 11:23N 32°54' E 028°42'1112.8
2014-Aug-15 10:34N 32°50' E 028°53'1312.6
2014-Aug-15 09:33N 32°45' E 029°08'1312.6
2014-Aug-15 08:33N 32°40' E 029°21'1312.7
2014-Aug-15 07:33N 32°35' E 029°35'1312.7
2014-Aug-15 06:33N 32°31' E 029°49'1212.4
2014-Aug-15 05:33N 32°27' E 030°03'1212.4
2014-Aug-15 04:34N 32°22' E 030°17'1612.3
2014-Aug-15 03:14N 32°17' E 030°35'812.4
2014-Aug-15 02:33N 32°14' E 030°44'1212.1
2014-Aug-15 01:33N 32°09' E 030°57'1212.4
2014-Aug-15 00:33N 32°05' E 031°11'1312.5
2014-Aug-14 23:33N 32°00' E 031°25'1212.4
2014-Aug-14 22:33N 31°55' E 031°38'1211.9
2014-Aug-14 21:34N 31°52' E 031°52'1212.1
2014-Aug-14 20:34N 31°43' E 032°02'1212.2
2014-Aug-14 19:33N 31°34' E 032°12'1212.1
2014-Aug-14 18:33N 31°28' E 032°24'1111.6
2014-Aug-14 17:33N 31°17' E 032°22'9 9.3
2014-Aug-14 16:33N 31°08' E 032°19'10 9.5
2014-Aug-14 15:33N 30°58' E 032°19'9 8.9
2014-Aug-14 14:32N 30°49' E 032°19'56 3.1
2014-Aug-13 20:31N 29°54' E 032°31'  

Dump ship's entire track history